Terminal Aerodrome Forecast
Issued by NWS

Home | Current Version | Previous Version | Text Only | Print | Product List | Glossary On
Versions: 1 2 3 4 5 6 7 8 9 10 11 12 13 14 15 16 17 18 19 20 21 22 23 24
000
FTUS44 KLIX 041743
TAFHDC
TAF
KHDC 041743Z 0418/0518 00000KT P6SM VCSH OVC035
      TEMPO 0418/0422 VRB15KT 1SM TSRA BKN020CB
     FM042200 16006KT P6SM VCSH SCT040 BKN250
     FM050100 18003KT P6SM SCT110 BKN250=

USA.gov is the U.S. government's official web portal to all federal, state and local government web resources and services.